SKS weather

Skrydstrup Air Base
Vojens, South Denmark, Denmark

Public forecast

Using degrees Celsius for public forecast. Weather courtesy of forecast.io.

Current aviation weather report (METAR) for Skrydstrup Air Base

Retrieved 2020/05/28 20:20 UTC (19 minutes ago):

EKSP 282020Z 31005KT CAVOK 09/06 Q1032

Aviation forecast (TAF) for Skrydstrup Air Base

Retrieved 2020/05/28 21:32 UTC (0 seconds ago):

TAF EKSP 282008Z 2821/2921 32005KT 9999 FEW200 PROB40 TEMPO 2902/2905 0800 BCFG BECMG 2911/2914 06006KT